Time;durP1;ratioP1;P1;durP2;ratioP2;P2;SDS_P1;SDS_P2;PMS_P1;PMS_P2;Temp;Humidity;BMP_temperature;BMP_pressure;BME280_temperature;BME280_humidity;BME280_pressure;Samples;Min_cycle;Max_cycle;Signal;HPM_P1;HPM_P2
2021/05/24 00:01:04;;;;;;;9.50;8.90;;;19.90;34.20;;;;;;4976052;28;20210;-76
2021/05/24 00:03:29;;;;;;;9.10;8.40;;;19.90;34.20;;;;;;4975925;28;20633;-76
2021/05/24 00:05:55;;;;;;;10.17;9.47;;;19.80;34.20;;;;;;4975394;28;20406;-77
2021/05/24 00:08:21;;;;;;;9.53;8.80;;;19.80;34.20;;;;;;4958471;28;20179;-76
2021/05/24 00:10:48;;;;;;;9.70;8.80;;;19.80;34.20;;;;;;4975630;28;20195;-76
2021/05/24 00:13:16;;;;;;;9.30;8.60;;;19.80;34.20;;;;;;4975479;28;20175;-76
2021/05/24 00:15:48;;;;;;;9.50;8.80;;;19.80;34.20;;;;;;4975661;28;20441;-77
2021/05/24 00:18:14;;;;;;;9.73;9.00;;;19.80;34.20;;;;;;4974449;28;20436;-76
2021/05/24 00:20:52;;;;;;;9.27;8.60;;;19.80;34.20;;;;;;4957989;28;20827;-76
2021/05/24 00:23:18;;;;;;;10.10;9.30;;;19.80;34.30;;;;;;4975665;28;20410;-76
2021/05/24 00:25:44;;;;;;;9.33;8.70;;;19.80;34.30;;;;;;4975482;28;20501;-76
2021/05/24 00:28:14;;;;;;;10.27;9.50;;;19.80;34.30;;;;;;4975143;28;20443;-76
2021/05/24 00:30:45;;;;;;;9.37;8.77;;;19.80;34.30;;;;;;4975392;28;20198;-75
2021/05/24 00:33:11;;;;;;;8.50;7.90;;;19.80;34.30;;;;;;4975282;28;20423;-76
2021/05/24 00:35:37;;;;;;;9.03;8.43;;;19.80;34.30;;;;;;4974807;28;20917;-76
2021/05/24 00:38:04;;;;;;;8.93;8.33;;;19.80;34.30;;;;;;4975256;28;20429;-76
2021/05/24 00:40:30;;;;;;;8.47;7.73;;;19.70;34.20;;;;;;4975346;28;20880;-77
2021/05/24 00:42:56;;;;;;;8.80;8.10;;;19.70;34.30;;;;;;4974828;28;20409;-76
2021/05/24 00:45:23;;;;;;;9.57;8.87;;;19.70;34.30;;;;;;4975053;28;20417;-77
2021/05/24 00:47:48;;;;;;;9.40;8.70;;;19.80;34.30;;;;;;4957918;28;20178;-77
2021/05/24 00:50:15;;;;;;;8.77;8.17;;;19.70;34.30;;;;;;4973429;28;20422;-76
2021/05/24 00:52:42;;;;;;;9.27;8.60;;;19.70;34.40;;;;;;4975154;28;20226;-76
2021/05/24 00:55:09;;;;;;;9.03;8.40;;;19.70;34.40;;;;;;4973300;28;20437;-76
2021/05/24 00:57:36;;;;;;;9.33;8.73;;;19.70;34.30;;;;;;4957275;28;20933;-76
2021/05/24 01:00:06;;;;;;;8.43;7.83;;;19.70;34.40;;;;;;4957655;28;21016;-77
2021/05/24 01:02:55;;;;;;;9.47;8.63;;;19.70;34.30;;;;;;4974986;28;20438;-77
2021/05/24 01:05:45;;;;;;;7.93;7.40;;;19.70;34.40;;;;;;4943587;28;20434;-75
2021/05/24 01:08:13;;;;;;;7.70;7.20;;;19.70;34.40;;;;;;4956952;28;20426;-76
2021/05/24 01:10:39;;;;;;;8.40;7.80;;;19.70;34.40;;;;;;4974667;28;20441;-78
2021/05/24 01:13:07;;;;;;;8.90;8.30;;;19.70;34.40;;;;;;4974500;28;20414;-77
2021/05/24 01:15:33;;;;;;;8.07;7.47;;;19.60;34.30;;;;;;4974483;28;20832;-76
2021/05/24 01:17:59;;;;;;;8.67;7.97;;;19.60;34.40;;;;;;4957193;28;20561;-77
2021/05/24 01:20:28;;;;;;;8.27;7.77;;;19.60;34.40;;;;;;4974083;28;20545;-76
2021/05/24 01:25:33;;;;;;;8.47;7.97;;;19.60;34.50;;;;;;4974156;28;20418;-77
2021/05/24 01:27:59;;;;;;;8.23;7.63;;;19.60;34.50;;;;;;4973209;28;21041;-76
2021/05/24 01:30:25;;;;;;;7.63;7.03;;;19.60;34.50;;;;;;4974249;28;20512;-76
2021/05/24 01:32:51;;;;;;;8.30;7.70;;;19.60;34.50;;;;;;4974117;28;20442;-77
2021/05/24 01:35:17;;;;;;;7.93;7.33;;;19.60;34.50;;;;;;4973825;28;20178;-76
2021/05/24 01:37:43;;;;;;;8.23;7.63;;;19.60;34.40;;;;;;4974332;28;20941;-76
2021/05/24 01:40:09;;;;;;;8.93;8.33;;;19.60;34.50;;;;;;4974123;28;20469;-77
2021/05/24 01:42:34;;;;;;;7.93;7.43;;;19.60;34.50;;;;;;4973912;28;20191;-77
2021/05/24 01:45:00;;;;;;;8.20;7.50;;;19.60;34.50;;;;;;4973961;28;20422;-76
2021/05/24 01:47:26;;;;;;;7.87;7.37;;;19.60;34.50;;;;;;4973892;28;20178;-77
2021/05/24 01:49:51;;;;;;;7.80;7.20;;;19.60;34.50;;;;;;4973727;28;20181;-77
2021/05/24 01:52:19;;;;;;;8.20;7.70;;;19.60;34.50;;;;;;4972750;28;20202;-76
2021/05/24 01:54:46;;;;;;;8.40;7.70;;;19.60;34.60;;;;;;4973789;28;20202;-76
2021/05/24 01:57:12;;;;;;;8.30;7.70;;;19.60;34.60;;;;;;4973438;28;20774;-76
2021/05/24 01:59:38;;;;;;;7.90;7.30;;;19.50;34.50;;;;;;4973701;28;20865;-76
2021/05/24 02:02:04;;;;;;;7.63;7.13;;;19.50;34.50;;;;;;4956275;28;20438;-76
2021/05/24 02:04:30;;;;;;;7.90;7.30;;;19.50;34.50;;;;;;4973453;28;20407;-75
2021/05/24 02:06:57;;;;;;;6.93;6.50;;;19.60;34.50;;;;;;4973529;28;20406;-77
2021/05/24 02:09:23;;;;;;;7.43;6.90;;;19.50;34.50;;;;;;4973729;28;20438;-77
2021/05/24 02:11:49;;;;;;;7.40;7.00;;;19.50;34.50;;;;;;4973248;28;20466;-76
2021/05/24 02:14:15;;;;;;;7.47;6.97;;;19.50;34.50;;;;;;4973521;28;20453;-77
2021/05/24 02:16:43;;;;;;;7.13;6.63;;;19.50;34.50;;;;;;4973387;28;20410;-77
2021/05/24 02:19:11;;;;;;;6.93;6.50;;;19.50;34.50;;;;;;4973268;28;20314;-77
2021/05/24 02:21:37;;;;;;;7.60;7.10;;;19.50;34.50;;;;;;4973531;28;20425;-76
2021/05/24 02:24:05;;;;;;;7.30;6.80;;;19.50;34.50;;;;;;4973403;28;20513;-76
2021/05/24 02:26:30;;;;;;;7.30;6.83;;;19.50;34.50;;;;;;4972957;28;20406;-76
2021/05/24 02:28:56;;;;;;;6.80;6.40;;;19.50;34.50;;;;;;4973358;28;21052;-76
2021/05/24 02:31:22;;;;;;;6.73;6.33;;;19.50;34.50;;;;;;4973233;28;20206;-76
2021/05/24 02:33:48;;;;;;;6.63;6.30;;;19.50;34.50;;;;;;4971810;28;20179;-76
2021/05/24 02:36:14;;;;;;;7.83;7.33;;;19.50;34.40;;;;;;4972961;28;20556;-77
2021/05/24 02:38:39;;;;;;;7.67;7.17;;;19.50;34.50;;;;;;4973264;28;20417;-77
2021/05/24 02:41:05;;;;;;;7.20;6.70;;;19.50;34.40;;;;;;4972805;28;20469;-77
2021/05/24 02:43:31;;;;;;;6.63;6.20;;;19.50;34.50;;;;;;4973157;28;20181;-76
2021/05/24 02:45:56;;;;;;;7.23;6.83;;;19.50;34.50;;;;;;4972941;28;20270;-77
2021/05/24 02:48:22;;;;;;;6.87;6.47;;;19.40;34.40;;;;;;4972872;28;20237;-76
2021/05/24 02:50:48;;;;;;;6.50;6.20;;;19.40;34.40;;;;;;4973111;28;20257;-77
2021/05/24 02:53:14;;;;;;;7.10;6.70;;;19.40;34.40;;;;;;4973151;28;20181;-77
2021/05/24 02:55:39;;;;;;;6.73;6.23;;;19.40;34.40;;;;;;4972513;28;20201;-76
2021/05/24 02:58:06;;;;;;;6.57;6.17;;;19.40;34.40;;;;;;4973137;28;20583;-76
2021/05/24 03:00:31;;;;;;;7.60;6.83;;;19.40;34.40;;;;;;4972805;28;20573;-77
2021/05/24 03:02:58;;;;;;;6.27;5.87;;;19.40;34.40;;;;;;4972910;28;20418;-76
2021/05/24 03:05:23;;;;;;;6.47;6.13;;;19.40;34.40;;;;;;4972745;28;20171;-76
2021/05/24 03:07:51;;;;;;;6.27;5.87;;;19.40;34.50;;;;;;4973194;28;20452;-76
2021/05/24 03:10:19;;;;;;;6.30;5.90;;;19.40;34.50;;;;;;4972573;28;20583;-77
2021/05/24 03:12:45;;;;;;;6.13;5.73;;;19.40;34.40;;;;;;4972869;28;20424;-76
2021/05/24 03:15:12;;;;;;;6.10;5.80;;;19.40;34.40;;;;;;4972850;28;20422;-76
2021/05/24 03:17:38;;;;;;;6.67;6.27;;;19.40;34.40;;;;;;4972912;28;20543;-76
2021/05/24 03:20:06;;;;;;;5.83;5.53;;;19.40;34.40;;;;;;4973314;28;20465;-75
2021/05/24 03:22:32;;;;;;;6.20;5.90;;;19.30;34.30;;;;;;4972950;28;20962;-76
2021/05/24 03:24:58;;;;;;;6.80;6.40;;;19.30;34.30;;;;;;4973688;28;20426;-76
2021/05/24 03:27:23;;;;;;;6.93;6.60;;;19.40;34.40;;;;;;4973918;28;20207;-75
2021/05/24 03:29:49;;;;;;;6.17;5.80;;;19.30;34.30;;;;;;4973741;28;20315;-77
2021/05/24 03:32:15;;;;;;;6.53;6.23;;;19.30;34.30;;;;;;4972864;28;20285;-75
2021/05/24 03:34:40;;;;;;;6.33;5.97;;;19.30;34.40;;;;;;4972746;28;20615;-76
2021/05/24 03:37:06;;;;;;;6.00;5.70;;;19.40;34.40;;;;;;4972616;28;20441;-76
2021/05/24 03:39:32;;;;;;;5.93;5.53;;;19.40;34.40;;;;;;4955212;28;20572;-76
2021/05/24 03:41:58;;;;;;;6.20;5.80;;;19.30;34.30;;;;;;4973739;28;20939;-76
2021/05/24 03:44:24;;;;;;;5.90;5.60;;;19.30;34.30;;;;;;4972358;28;20473;-76
2021/05/24 03:46:50;;;;;;;6.40;6.10;;;19.30;34.30;;;;;;4973715;28;20645;-76
2021/05/24 03:49:15;;;;;;;6.53;6.13;;;19.30;34.30;;;;;;4976310;28;20708;-77
2021/05/24 03:51:41;;;;;;;5.93;5.53;;;19.30;34.30;;;;;;4976089;28;20426;-76
2021/05/24 03:54:07;;;;;;;6.63;6.20;;;19.30;34.30;;;;;;4975722;28;20187;-77
2021/05/24 03:56:33;;;;;;;6.17;5.77;;;19.30;34.30;;;;;;4975840;28;20177;-77
2021/05/24 03:58:58;;;;;;;5.93;5.60;;;19.30;34.40;;;;;;4975928;28;20789;-76
2021/05/24 04:01:24;;;;;;;5.70;5.40;;;19.30;34.30;;;;;;4975618;28;20441;-76
2021/05/24 04:03:51;;;;;;;6.03;5.67;;;19.30;34.40;;;;;;4975957;28;20185;-77
2021/05/24 04:06:17;;;;;;;6.10;5.70;;;19.30;34.30;;;;;;4975617;28;20174;-77
2021/05/24 04:08:44;;;;;;;6.70;6.30;;;19.30;34.40;;;;;;4975686;28;20421;-77
2021/05/24 04:11:11;;;;;;;6.80;6.40;;;19.30;34.50;;;;;;4975793;28;20489;-78
2021/05/24 04:13:37;;;;;;;6.50;6.07;;;19.30;34.60;;;;;;4975890;28;20984;-78
2021/05/24 04:16:03;;;;;;;5.90;5.40;;;19.30;34.70;;;;;;4975557;28;20539;-77
2021/05/24 04:18:31;;;;;;;6.57;5.83;;;19.30;34.70;;;;;;4975796;28;20551;-78
2021/05/24 04:20:58;;;;;;;5.40;5.10;;;19.30;34.70;;;;;;4975690;28;20465;-77
2021/05/24 04:23:23;;;;;;;4.83;4.40;;;19.40;34.90;;;;;;4957941;28;20418;-77
2021/05/24 04:25:49;;;;;;;6.27;4.07;;;19.40;35.00;;;;;;4975456;28;20406;-77
2021/05/24 04:28:15;;;;;;;4.93;4.57;;;19.40;35.10;;;;;;4975598;28;20175;-78
2021/05/24 04:30:42;;;;;;;5.63;4.70;;;19.40;35.10;;;;;;4975302;28;20202;-77
2021/05/24 04:33:09;;;;;;;4.57;4.17;;;19.50;35.20;;;;;;4975384;28;20167;-77
2021/05/24 04:35:35;;;;;;;6.90;4.30;;;19.50;35.40;;;;;;4975275;28;20410;-76
2021/05/24 04:38:01;;;;;;;4.80;4.50;;;19.50;35.40;;;;;;4975149;28;20414;-77
2021/05/24 04:40:26;;;;;;;4.80;4.50;;;19.60;35.40;;;;;;4957906;28;21003;-77
2021/05/24 04:42:53;;;;;;;4.57;4.27;;;19.60;35.40;;;;;;4975417;28;20163;-77
2021/05/24 04:45:19;;;;;;;4.70;4.30;;;19.60;35.30;;;;;;4974958;28;20222;-77
2021/05/24 04:47:47;;;;;;;8.70;5.03;;;19.60;35.40;;;;;;4975242;28;20411;-78
2021/05/24 04:50:13;;;;;;;5.80;4.50;;;19.70;35.20;;;;;;4957426;28;20766;-77
2021/05/24 04:52:39;;;;;;;6.33;4.60;;;19.70;35.50;;;;;;4974889;28;20198;-77
2021/05/24 04:55:06;;;;;;;6.03;4.33;;;20.00;34.80;;;;;;4973156;28;20859;-77
2021/05/24 04:57:32;;;;;;;3.67;3.47;;;20.40;34.20;;;;;;4974249;28;20190;-76
2021/05/24 04:59:58;;;;;;;4.50;4.10;;;20.80;33.70;;;;;;4973245;28;20462;-77
2021/05/24 05:02:24;;;;;;;4.30;4.00;;;21.00;32.40;;;;;;4973425;28;20837;-76
2021/05/24 05:04:49;;;;;;;4.73;4.33;;;21.00;32.20;;;;;;4974790;28;20226;-75
2021/05/24 05:07:15;;;;;;;4.10;3.70;;;21.10;31.80;;;;;;4974042;28;20222;-77
2021/05/24 05:09:41;;;;;;;4.27;3.97;;;21.20;31.40;;;;;;4974055;28;20229;-77
2021/05/24 05:12:06;;;;;;;4.37;3.97;;;21.20;31.00;;;;;;4974659;28;20727;-77
2021/05/24 05:14:32;;;;;;;5.23;4.20;;;21.30;31.00;;;;;;4974545;28;20182;-77
2021/05/24 05:16:58;;;;;;;4.13;3.70;;;21.30;31.00;;;;;;4974060;28;20497;-75
2021/05/24 05:19:23;;;;;;;4.37;4.10;;;21.30;31.00;;;;;;4974459;28;20195;-76
2021/05/24 05:21:49;;;;;;;3.90;3.60;;;21.40;31.10;;;;;;4972864;28;20789;-77
2021/05/24 05:24:16;;;;;;;3.90;3.70;;;21.40;31.10;;;;;;4974106;28;20202;-76
2021/05/24 05:26:42;;;;;;;3.93;3.73;;;21.40;30.70;;;;;;4973916;28;20413;-76
2021/05/24 05:29:08;;;;;;;3.60;3.40;;;21.40;30.60;;;;;;4957153;28;20521;-76
2021/05/24 05:31:34;;;;;;;3.70;3.50;;;21.40;30.50;;;;;;4974014;28;20521;-76
2021/05/24 05:34:00;;;;;;;3.80;3.60;;;21.40;30.60;;;;;;4974273;28;20445;-76
2021/05/24 05:36:27;;;;;;;3.77;3.53;;;21.40;30.60;;;;;;4973965;28;20609;-76
2021/05/24 05:38:53;;;;;;;3.43;3.20;;;21.50;30.40;;;;;;4974018;28;20181;-76
2021/05/24 05:41:18;;;;;;;3.80;3.50;;;21.40;30.40;;;;;;4972704;28;20481;-76
2021/05/24 05:43:44;;;;;;;3.50;3.20;;;21.40;30.50;;;;;;4974223;28;20208;-76
2021/05/24 05:46:10;;;;;;;3.57;3.37;;;21.50;30.30;;;;;;4973569;28;20313;-77
2021/05/24 05:48:36;;;;;;;3.77;3.47;;;21.50;30.20;;;;;;4974034;28;20179;-77
2021/05/24 05:51:02;;;;;;;3.33;3.13;;;21.50;30.20;;;;;;4973943;28;20849;-77
2021/05/24 05:53:27;;;;;;;3.50;3.30;;;21.50;30.20;;;;;;4973769;28;20185;-76
2021/05/24 05:55:53;;;;;;;3.57;3.37;;;21.50;30.30;;;;;;4973647;28;20846;-76
2021/05/24 05:58:19;;;;;;;3.67;3.37;;;21.50;30.30;;;;;;4973924;28;20229;-76
2021/05/24 06:00:45;;;;;;;3.37;3.17;;;21.50;30.10;;;;;;4973565;28;20214;-76
2021/05/24 06:03:12;;;;;;;3.53;3.33;;;21.50;30.00;;;;;;4973730;28;20797;-76
2021/05/24 06:05:38;;;;;;;3.40;3.10;;;21.60;30.00;;;;;;4973464;28;20175;-77
2021/05/24 06:08:07;;;;;;;4.00;3.70;;;21.60;30.00;;;;;;4973373;28;20480;-79
2021/05/24 06:10:33;;;;;;;3.70;3.50;;;21.70;29.80;;;;;;4955358;28;20316;-77
2021/05/24 06:13:00;;;;;;;3.60;3.40;;;21.90;29.80;;;;;;4953725;29;21214;-77
2021/05/24 06:15:26;;;;;;;4.00;3.70;;;21.90;29.50;;;;;;4953069;29;20420;-77
2021/05/24 06:17:51;;;;;;;3.20;3.00;;;22.00;29.50;;;;;;4954222;29;20231;-77
2021/05/24 06:20:17;;;;;;;3.90;3.47;;;22.00;29.40;;;;;;4936641;28;20477;-78
2021/05/24 06:22:43;;;;;;;3.60;3.40;;;22.00;29.20;;;;;;4936681;29;20171;-77
2021/05/24 06:25:10;;;;;;;3.57;3.27;;;22.00;29.30;;;;;;4954000;29;20238;-78
2021/05/24 06:27:37;;;;;;;3.73;3.53;;;21.80;29.60;;;;;;4954255;29;20411;-77
2021/05/24 06:30:08;;;;;;;3.43;3.23;;;21.70;29.80;;;;;;4953913;29;20421;-77
2021/05/24 06:32:33;;;;;;;3.90;3.60;;;21.60;30.00;;;;;;4953928;28;20466;-78
2021/05/24 06:34:59;;;;;;;3.73;3.33;;;21.50;30.60;;;;;;4958460;28;20446;-78
2021/05/24 06:37:25;;;;;;;3.67;3.47;;;21.40;31.10;;;;;;4971252;28;20183;-77
2021/05/24 06:39:50;;;;;;;3.50;3.20;;;21.40;30.60;;;;;;4972151;28;20237;-75
2021/05/24 06:42:17;;;;;;;3.50;3.20;;;21.40;30.70;;;;;;4973400;28;20244;-75
2021/05/24 06:44:42;;;;;;;3.27;3.07;;;21.30;30.70;;;;;;4973033;28;20199;-77
2021/05/24 06:47:08;;;;;;;5.97;2.90;;;21.30;30.80;;;;;;4972459;28;21031;-75
2021/05/24 06:49:35;;;;;;;3.03;2.93;;;21.20;30.90;;;;;;4974107;28;20522;-76
2021/05/24 06:52:02;;;;;;;3.50;3.20;;;21.10;30.80;;;;;;4956646;28;20205;-75
2021/05/24 06:54:28;;;;;;;3.30;3.10;;;21.10;30.80;;;;;;4973191;28;20446;-77
2021/05/24 06:56:53;;;;;;;3.17;2.97;;;21.10;30.80;;;;;;4960757;28;20440;-76
2021/05/24 06:59:19;;;;;;;3.40;3.10;;;21.00;30.80;;;;;;4978058;28;20214;-78
2021/05/24 07:01:44;;;;;;;4.20;3.13;;;21.00;31.10;;;;;;4978021;28;20725;-77
2021/05/24 07:04:10;;;;;;;5.07;3.27;;;21.00;31.60;;;;;;4975968;28;20190;-77
2021/05/24 07:06:35;;;;;;;9.67;4.07;;;20.90;31.70;;;;;;4972571;28;20183;-75
2021/05/24 07:09:02;;;;;;;8.20;4.50;;;20.90;32.00;;;;;;4973243;28;20665;-76
2021/05/24 07:11:27;;;;;;;9.30;5.10;;;20.80;32.40;;;;;;4972876;28;20196;-76
2021/05/24 07:13:53;;;;;;;6.60;4.27;;;20.80;32.60;;;;;;4955378;28;20796;-76
2021/05/24 07:16:18;;;;;;;6.20;3.93;;;20.70;33.00;;;;;;4972823;28;20188;-75
2021/05/24 07:18:44;;;;;;;5.83;4.87;;;20.70;33.10;;;;;;4972499;28;20186;-76
2021/05/24 07:21:13;;;;;;;9.37;5.30;;;20.70;33.10;;;;;;4973122;28;20229;-77
2021/05/24 07:23:39;;;;;;;6.83;5.30;;;20.70;34.00;;;;;;4980937;28;20187;-77
2021/05/24 07:26:04;;;;;;;7.20;6.13;;;20.70;34.10;;;;;;4964237;28;20476;-77
2021/05/24 07:28:30;;;;;;;9.70;6.40;;;20.70;34.20;;;;;;4980395;28;20182;-77
2021/05/24 07:30:55;;;;;;;6.77;6.37;;;20.70;34.90;;;;;;4977591;28;20202;-77
2021/05/24 07:33:21;;;;;;;7.43;6.73;;;20.70;35.10;;;;;;4978324;28;20179;-77
2021/05/24 07:35:53;;;;;;;7.60;6.87;;;20.60;35.70;;;;;;4975884;28;20199;-77
2021/05/24 07:38:32;;;;;;;7.23;6.60;;;20.60;35.30;;;;;;4952771;28;20190;-78
2021/05/24 07:41:03;;;;;;;6.33;5.73;;;20.50;35.30;;;;;;4958820;28;20490;-76
2021/05/24 07:43:29;;;;;;;7.47;5.67;;;20.40;34.10;;;;;;4959698;28;20422;-76
2021/05/24 07:45:57;;;;;;;4.77;4.50;;;20.40;34.20;;;;;;4974847;28;20430;-77
2021/05/24 07:48:24;;;;;;;5.10;4.67;;;20.30;33.50;;;;;;4968835;28;20258;-76
2021/05/24 07:50:50;;;;;;;11.00;5.70;;;20.20;33.70;;;;;;4960587;28;20465;-77
2021/05/24 07:53:15;;;;;;;5.30;4.70;;;20.20;33.50;;;;;;4976134;28;20174;-77
2021/05/24 07:55:41;;;;;;;5.30;4.80;;;20.20;33.50;;;;;;4975165;28;20195;-77
2021/05/24 07:58:07;;;;;;;5.73;5.00;;;20.10;33.60;;;;;;4980468;28;20189;-76
2021/05/24 08:00:37;;;;;;;4.80;4.40;;;20.20;34.50;;;;;;4977360;28;20213;-77
2021/05/24 08:03:03;;;;;;;5.03;4.63;;;20.10;33.80;;;;;;4976094;28;20170;-77
2021/05/24 08:05:31;;;;;;;6.23;4.90;;;20.10;33.90;;;;;;4941722;28;20438;-76
2021/05/24 08:07:56;;;;;;;4.53;4.33;;;20.10;34.00;;;;;;4975887;28;20414;-76
2021/05/24 08:10:23;;;;;;;6.50;5.20;;;20.00;34.00;;;;;;4975965;28;20947;-77
2021/05/24 08:12:49;;;;;;;5.70;4.17;;;20.00;34.10;;;;;;4958163;28;20183;-76
2021/05/24 08:15:30;;;;;;;5.00;4.60;;;20.00;34.10;;;;;;4958219;28;20429;-76
2021/05/24 08:18:01;;;;;;;5.20;4.70;;;20.00;34.20;;;;;;4975736;28;20254;-76
2021/05/24 08:20:28;;;;;;;4.60;4.20;;;20.00;34.20;;;;;;4958031;28;20461;-76
2021/05/24 08:22:53;;;;;;;4.27;3.93;;;20.00;34.40;;;;;;4975652;28;20410;-76
2021/05/24 08:25:20;;;;;;;4.40;3.87;;;19.90;34.40;;;;;;4975464;28;20504;-77
2021/05/24 08:27:45;;;;;;;4.67;4.27;;;19.90;34.50;;;;;;4957921;28;20178;-76
2021/05/24 08:30:12;;;;;;;4.80;4.50;;;19.90;34.60;;;;;;4975506;28;20461;-76
2021/05/24 08:32:38;;;;;;;6.00;4.90;;;19.90;34.60;;;;;;4979008;28;20203;-76
2021/05/24 08:35:05;;;;;;;4.27;3.97;;;19.90;34.50;;;;;;4976300;28;20429;-79
2021/05/24 08:37:31;;;;;;;4.80;4.40;;;19.90;34.60;;;;;;4980182;28;20521;-75
2021/05/24 08:39:57;;;;;;;4.20;3.80;;;19.80;34.50;;;;;;4976387;28;20541;-75
2021/05/24 08:42:26;;;;;;;4.40;4.07;;;19.80;34.60;;;;;;4972269;28;20202;-75
2021/05/24 08:44:51;;;;;;;4.50;4.10;;;19.80;34.80;;;;;;4975183;28;20266;-74
2021/05/24 08:47:18;;;;;;;3.63;3.43;;;19.80;34.80;;;;;;4975107;28;20937;-75
2021/05/24 08:49:44;;;;;;;4.17;3.77;;;19.80;35.10;;;;;;4974870;28;20178;-76
2021/05/24 08:52:10;;;;;;;4.40;4.00;;;19.80;34.70;;;;;;4974738;28;20956;-75
2021/05/24 08:54:37;;;;;;;4.77;4.37;;;19.80;34.70;;;;;;4963705;28;20453;-78
2021/05/24 08:57:04;;;;;;;4.70;3.67;;;19.80;34.80;;;;;;4974707;28;20429;-74
2021/05/24 08:59:29;;;;;;;4.23;3.77;;;19.80;34.90;;;;;;4974869;28;20474;-75
2021/05/24 09:01:55;;;;;;;6.00;3.90;;;19.80;34.90;;;;;;4974780;28;20533;-76
2021/05/24 09:04:20;;;;;;;3.90;3.40;;;19.80;34.90;;;;;;4974652;28;20270;-75
2021/05/24 09:06:48;;;;;;;6.93;4.53;;;19.80;35.00;;;;;;4974694;28;20186;-76
2021/05/24 09:09:16;;;;;;;3.83;3.43;;;19.80;35.00;;;;;;4974723;28;20183;-75
2021/05/24 09:11:43;;;;;;;8.07;4.70;;;19.80;35.20;;;;;;4974614;28;20442;-76
2021/05/24 09:14:17;;;;;;;10.33;4.03;;;19.90;35.20;;;;;;4957481;28;20422;-76
2021/05/24 09:16:43;;;;;;;5.67;3.70;;;19.90;35.40;;;;;;4957027;28;20508;-77
2021/05/24 09:19:13;;;;;;;5.30;4.37;;;20.00;35.40;;;;;;4974455;28;20598;-78
2021/05/24 09:21:47;;;;;;;7.30;4.00;;;19.90;35.20;;;;;;4974524;28;20210;-76
2021/05/24 09:24:42;;;;;;;9.67;4.33;;;20.00;35.40;;;;;;4974534;28;20442;-76
2021/05/24 09:27:27;;;;;;;6.90;4.50;;;20.00;35.30;;;;;;4972689;28;20520;-76
2021/05/24 09:29:59;;;;;;;6.80;3.80;;;20.00;35.20;;;;;;4967562;28;20414;-76
2021/05/24 09:32:26;;;;;;;5.73;4.00;;;20.00;35.10;;;;;;4973980;28;20916;-77
2021/05/24 09:34:54;;;;;;;6.30;3.80;;;20.00;35.00;;;;;;4974092;28;20454;-76
2021/05/24 09:37:33;;;;;;;5.70;3.63;;;20.00;35.00;;;;;;4956702;28;20453;-76
2021/05/24 09:39:58;;;;;;;9.10;4.37;;;20.00;34.80;;;;;;4974317;28;20524;-74
2021/05/24 09:42:25;;;;;;;7.20;4.47;;;20.00;34.90;;;;;;4973971;28;20438;-76
2021/05/24 09:44:55;;;;;;;9.47;4.73;;;20.00;34.90;;;;;;4973371;28;20171;-75
2021/05/24 09:47:38;;;;;;;9.43;4.17;;;20.00;35.00;;;;;;4973868;28;20493;-77
2021/05/24 09:50:12;;;;;;;16.63;5.83;;;20.00;35.10;;;;;;4973900;28;20460;-75
2021/05/24 09:52:39;;;;;;;10.57;4.60;;;20.00;35.00;;;;;;4973949;28;20444;-76
2021/05/24 09:55:24;;;;;;;6.03;5.03;;;20.00;34.90;;;;;;4956212;28;20505;-76
2021/05/24 09:58:00;;;;;;;6.47;4.27;;;20.00;34.90;;;;;;4973550;28;20489;-75
2021/05/24 10:00:30;;;;;;;8.23;4.40;;;19.90;34.80;;;;;;4972471;28;20856;-76
2021/05/24 10:02:59;;;;;;;13.63;4.50;;;19.90;34.80;;;;;;4973819;28;20418;-77
2021/05/24 10:05:47;;;;;;;15.10;5.20;;;20.00;34.80;;;;;;4973159;28;20415;-75
2021/05/24 10:08:13;;;;;;;16.53;7.50;;;19.90;34.70;;;;;;4965028;28;20925;-76
2021/05/24 10:10:40;;;;;;;18.20;6.33;;;20.00;34.80;;;;;;4974091;28;20968;-76
2021/05/24 10:13:06;;;;;;;16.50;6.23;;;20.00;34.90;;;;;;4980805;28;20421;-75
2021/05/24 10:15:36;;;;;;;17.80;6.00;;;20.00;34.80;;;;;;4979876;28;20489;-76
2021/05/24 10:18:02;;;;;;;23.97;7.13;;;20.00;34.90;;;;;;4974785;28;20441;-75
2021/05/24 10:20:29;;;;;;;15.70;6.40;;;19.90;34.80;;;;;;4971751;28;20469;-75
2021/05/24 10:22:55;;;;;;;15.50;6.20;;;19.90;34.90;;;;;;4972416;28;20418;-75
2021/05/24 10:25:21;;;;;;;16.07;5.40;;;19.90;34.90;;;;;;4972445;28;20432;-75
2021/05/24 10:27:48;;;;;;;21.27;6.63;;;19.90;34.90;;;;;;4973859;28;20648;-74
2021/05/24 10:30:14;;;;;;;11.20;5.70;;;19.90;34.90;;;;;;4973819;28;20417;-74
2021/05/24 10:33:00;;;;;;;12.20;5.30;;;19.90;34.90;;;;;;4974793;28;20532;-75
2021/05/24 10:35:37;;;;;;;11.50;5.30;;;20.00;35.10;;;;;;4975018;28;20869;-75
2021/05/24 10:38:28;;;;;;;9.93;5.23;;;19.90;35.00;;;;;;4974015;28;20410;-75
2021/05/24 10:41:11;;;;;;;17.60;6.03;;;19.90;35.10;;;;;;4973270;28;20524;-75
2021/05/24 10:43:48;;;;;;;12.70;5.17;;;19.90;35.00;;;;;;4973388;28;20414;-75
2021/05/24 10:46:25;;;;;;;14.90;5.13;;;19.90;35.10;;;;;;4973202;28;20418;-75
2021/05/24 10:49:19;;;;;;;14.30;5.67;;;19.90;35.00;;;;;;4973328;28;20416;-75
2021/05/24 10:51:49;;;;;;;14.07;5.17;;;19.90;35.00;;;;;;4951732;28;20465;-75
2021/05/24 10:54:20;;;;;;;12.27;4.50;;;19.90;35.00;;;;;;4973048;28;20801;-75
2021/05/24 10:56:49;;;;;;;8.87;4.57;;;19.90;35.00;;;;;;4972044;28;20871;-75
2021/05/24 10:59:42;;;;;;;12.07;5.73;;;19.90;35.00;;;;;;4972974;28;20449;-75
2021/05/24 11:02:30;;;;;;;12.50;4.87;;;19.90;35.00;;;;;;4972992;28;20425;-75
2021/05/24 11:04:58;;;;;;;12.13;4.80;;;19.90;35.00;;;;;;4973079;28;20441;-75
2021/05/24 11:07:44;;;;;;;7.57;5.07;;;19.90;35.00;;;;;;4972943;28;20437;-75
2021/05/24 11:10:18;;;;;;;10.30;5.07;;;19.90;35.10;;;;;;4972948;28;20830;-75
2021/05/24 11:12:44;;;;;;;7.80;4.40;;;19.90;35.00;;;;;;4973060;28;20436;-75
2021/05/24 11:15:21;;;;;;;7.93;5.00;;;19.90;35.00;;;;;;4955407;28;20501;-75
2021/05/24 11:17:58;;;;;;;6.33;4.10;;;19.90;35.00;;;;;;4973201;28;20410;-75
2021/05/24 11:20:55;;;;;;;6.67;4.60;;;19.90;34.90;;;;;;4972832;28;20489;-75
2021/05/24 11:23:32;;;;;;;7.73;4.83;;;19.90;34.80;;;;;;4972893;28;20445;-75
2021/05/24 11:26:32;;;;;;;5.90;4.47;;;19.80;34.80;;;;;;4955693;28;20413;-75
2021/05/24 11:29:14;;;;;;;10.07;4.20;;;19.90;35.50;;;;;;4972743;28;20410;-75
2021/05/24 11:31:46;;;;;;;4.07;3.70;;;19.90;34.80;;;;;;4972789;28;20788;-75
2021/05/24 11:34:24;;;;;;;13.30;5.53;;;19.90;34.70;;;;;;4955397;28;20538;-75
2021/05/24 11:36:54;;;;;;;6.97;4.40;;;19.80;34.60;;;;;;4972712;28;20406;-75
2021/05/24 11:39:33;;;;;;;9.63;5.10;;;19.90;34.70;;;;;;4972758;28;20406;-76
2021/05/24 11:42:04;;;;;;;8.50;4.37;;;19.80;34.60;;;;;;4954920;28;20438;-75
2021/05/24 11:44:48;;;;;;;7.77;4.40;;;19.80;34.00;;;;;;4955489;28;20424;-75
2021/05/24 11:47:27;;;;;;;4.57;4.13;;;19.80;34.50;;;;;;4972518;28;20410;-75
2021/05/24 11:50:08;;;;;;;4.63;3.93;;;19.90;34.60;;;;;;4972893;28;20408;-76
2021/05/24 11:52:36;;;;;;;6.63;4.20;;;19.90;34.50;;;;;;4972625;28;20520;-75
2021/05/24 11:55:09;;;;;;;8.83;4.37;;;19.80;34.50;;;;;;4972473;28;20437;-75
2021/05/24 11:57:36;;;;;;;7.93;3.73;;;19.90;34.40;;;;;;4972842;28;20452;-75
2021/05/24 12:00:05;;;;;;;6.17;4.17;;;19.80;34.40;;;;;;4971350;28;20461;-75
2021/05/24 12:02:33;;;;;;;5.03;4.40;;;19.80;34.50;;;;;;4972595;28;20525;-75
2021/05/24 12:04:59;;;;;;;4.93;3.77;;;19.90;34.40;;;;;;4972513;28;20415;-75
2021/05/24 12:07:25;;;;;;;4.73;4.17;;;19.80;34.30;;;;;;4973532;28;20410;-75
2021/05/24 12:09:54;;;;;;;7.33;4.30;;;19.90;34.40;;;;;;4975940;28;20485;-75
2021/05/24 12:12:35;;;;;;;5.60;4.07;;;19.80;34.30;;;;;;4958486;28;20253;-75
2021/05/24 12:15:07;;;;;;;5.43;3.63;;;19.90;34.40;;;;;;4975742;28;20424;-76
2021/05/24 12:17:35;;;;;;;5.30;4.20;;;19.90;34.30;;;;;;4976023;28;20450;-75
2021/05/24 12:20:04;;;;;;;7.30;4.53;;;19.80;34.30;;;;;;4975719;28;20457;-75
2021/05/24 12:22:35;;;;;;;10.57;4.00;;;19.90;34.30;;;;;;4975595;28;20441;-76
2021/05/24 12:25:00;;;;;;;5.60;4.07;;;19.80;34.20;;;;;;4958309;28;20933;-75
2021/05/24 12:27:27;;;;;;;6.30;4.23;;;19.90;34.20;;;;;;4975666;28;20421;-75
2021/05/24 12:30:14;;;;;;;4.60;3.70;;;19.80;34.00;;;;;;4975603;28;20175;-75
2021/05/24 12:32:44;;;;;;;3.90;3.60;;;19.80;34.10;;;;;;4975699;28;20433;-75
2021/05/24 12:35:12;;;;;;;3.50;3.20;;;19.80;34.20;;;;;;4975331;28;20411;-75
2021/05/24 12:37:46;;;;;;;5.43;3.70;;;19.80;34.20;;;;;;4975523;28;20422;-75
2021/05/24 12:40:12;;;;;;;5.43;3.93;;;19.90;34.20;;;;;;4975652;28;20499;-75
2021/05/24 12:42:39;;;;;;;6.13;3.87;;;19.80;34.10;;;;;;4975369;28;20430;-75
2021/05/24 12:45:11;;;;;;;5.73;3.47;;;19.80;34.00;;;;;;4958108;28;20449;-75
2021/05/24 12:47:37;;;;;;;4.33;3.77;;;19.80;34.00;;;;;;4975549;28;20438;-75
2021/05/24 12:50:15;;;;;;;4.67;3.93;;;19.80;34.10;;;;;;4975281;28;20422;-75
2021/05/24 12:52:41;;;;;;;4.90;4.20;;;19.80;34.10;;;;;;4975089;28;20458;-75
2021/05/24 12:55:18;;;;;;;5.90;3.50;;;19.80;34.10;;;;;;4974689;28;20438;-76